Time;durP1;ratioP1;P1;durP2;ratioP2;P2;SDS_P1;SDS_P2;PMS_P1;PMS_P2;Temp;Humidity;BMP_temperature;BMP_pressure;BME280_temperature;BME280_humidity;BME280_pressure;Samples;Min_cycle;Max_cycle;Signal;HPM_P1;HPM_P2
2022/08/28 00:02:22;;;;;;;18.20;10.68;;;;;;;22.83;53.29;98706.70;1690198;85;21018;-45
2022/08/28 00:04:49;;;;;;;19.90;10.35;;;;;;;22.79;53.84;98696.34;1690209;85;20984;-47
2022/08/28 00:07:15;;;;;;;16.60;9.00;;;;;;;22.76;54.20;98696.70;1690258;85;21003;-44
2022/08/28 00:09:41;;;;;;;17.75;9.83;;;;;;;22.74;54.26;98697.87;1690295;85;21007;-49
2022/08/28 00:12:08;;;;;;;17.55;9.55;;;;;;;22.71;55.27;98694.22;1690421;85;21018;-53
2022/08/28 00:14:34;;;;;;;27.70;10.18;;;;;;;22.67;55.34;98699.62;1690367;85;21019;-47
2022/08/28 00:17:00;;;;;;;16.40;9.38;;;;;;;22.65;55.77;98700.27;1690239;85;21498;-52
2022/08/28 00:19:26;;;;;;;17.80;9.63;;;;;;;22.56;56.42;98689.62;1690155;85;21047;-56
2022/08/28 00:21:53;;;;;;;16.83;8.87;;;;;;;22.56;56.42;98689.62;1690437;85;21349;-45
2022/08/28 00:24:19;;;;;;;15.50;8.15;;;;;;;22.59;56.71;98697.31;1690248;85;21014;-47
2022/08/28 00:29:30;;;;;;;19.02;8.93;;;;;;;22.54;57.33;98701.50;1690207;85;20995;-46
2022/08/28 00:31:57;;;;;;;16.93;8.18;;;;;;;22.52;57.55;98698.17;1690426;85;20980;-49
2022/08/28 00:34:24;;;;;;;13.20;7.75;;;;;;;22.50;58.62;98701.02;1690252;85;21018;-51
2022/08/28 00:36:49;;;;;;;16.57;8.60;;;;;;;22.49;58.62;98694.53;1690440;85;21144;-55
2022/08/28 00:39:15;;;;;;;16.42;8.00;;;;;;;22.46;59.19;98700.22;1690156;85;21465;-55
2022/08/28 00:41:41;;;;;;;13.50;7.83;;;;;;;22.43;59.34;98686.69;1690160;85;21052;-57
2022/08/28 00:44:21;;;;;;;17.60;7.80;;;;;;;22.39;59.44;98690.70;1690154;85;20983;-44
2022/08/28 00:46:52;;;;;;;14.00;7.75;;;;;;;22.36;59.81;98686.55;1690117;85;21027;-54
2022/08/28 00:49:25;;;;;;;14.80;8.18;;;;;;;22.34;59.95;98690.39;1681283;85;21036;-51
2022/08/28 00:52:07;;;;;;;13.22;7.47;;;;;;;22.30;60.70;98693.92;1680183;85;21019;-49
2022/08/28 00:54:47;;;;;;;11.55;7.78;;;;;;;22.28;61.26;98691.10;1680085;85;20984;-57
2022/08/28 00:57:18;;;;;;;17.65;7.72;;;;;;;22.30;61.32;98687.74;1680146;85;20980;-51
2022/08/28 00:59:44;;;;;;;15.70;7.78;;;;;;;22.28;61.41;98685.75;1680204;85;21012;-52
2022/08/28 01:02:10;;;;;;;10.10;7.00;;;;;;;22.22;62.14;98682.72;1680280;85;21000;-43
2022/08/28 01:04:37;;;;;;;9.15;7.28;;;;;;;22.20;62.39;98683.91;1680005;85;21008;-51
2022/08/28 01:07:09;;;;;;;11.38;7.70;;;;;;;22.17;62.86;98687.76;1680191;85;21069;-55
2022/08/28 01:09:39;;;;;;;11.38;7.30;;;;;;;22.17;62.42;98683.74;1680067;85;21551;-56
2022/08/28 01:12:10;;;;;;;10.82;7.10;;;;;;;22.14;62.95;98689.95;1680164;85;21035;-53
2022/08/28 01:14:39;;;;;;;17.05;7.62;;;;;;;22.09;63.08;98682.45;1680171;85;21031;-49
2022/08/28 01:17:08;;;;;;;13.83;7.95;;;;;;;22.03;63.56;98683.16;1658527;85;21521;-45
2022/08/28 01:19:45;;;;;;;14.15;7.65;;;;;;;22.02;63.20;98688.17;1680047;85;21027;-48
2022/08/28 01:22:28;;;;;;;14.50;7.37;;;;;;;21.99;63.23;98684.48;1679991;85;21019;-51
2022/08/28 01:24:58;;;;;;;11.30;7.08;;;;;;;21.94;64.06;98685.02;1680042;85;21046;-49
2022/08/28 01:27:24;;;;;;;10.65;6.90;;;;;;;21.92;64.57;98686.19;1680066;85;20996;-51
2022/08/28 01:29:50;;;;;;;12.00;6.87;;;;;;;21.90;64.74;98676.16;1680021;85;21011;-48
2022/08/28 01:32:29;;;;;;;17.00;7.35;;;;;;;21.92;65.04;98688.86;1680046;85;21055;-47
2022/08/28 01:34:55;;;;;;;9.40;6.25;;;;;;;21.91;64.99;98686.70;1679433;85;21072;-52
2022/08/28 01:37:20;;;;;;;10.70;6.78;;;;;;;21.93;65.04;98684.68;1680150;85;20988;-48
2022/08/28 01:39:46;;;;;;;10.65;6.65;;;;;;;21.93;65.19;98688.70;1680050;85;21509;-43
2022/08/28 01:42:12;;;;;;;13.53;6.30;;;;;;;21.94;65.06;98685.02;1680071;85;21517;-50
2022/08/28 01:44:38;;;;;;;8.33;6.20;;;;;;;21.96;65.08;98686.20;1680358;85;21623;-51
2022/08/28 01:47:04;;;;;;;17.20;6.53;;;;;;;21.99;64.71;98692.04;1680067;85;21047;-52
2022/08/28 01:49:30;;;;;;;14.35;6.33;;;;;;;21.99;64.77;98693.38;1679931;85;21059;-51
2022/08/28 01:51:57;;;;;;;9.78;6.40;;;;;;;21.99;65.21;98688.50;1680034;85;21000;-51
2022/08/28 01:54:25;;;;;;;7.72;6.37;;;;;;;21.98;64.99;98689.53;1679991;85;21078;-57
2022/08/28 01:56:51;;;;;;;16.60;7.15;;;;;;;21.96;65.37;98694.23;1680017;85;21015;-55
2022/08/28 01:59:17;;;;;;;8.70;6.40;;;;;;;21.95;64.88;98689.87;1680035;85;20988;-49
2022/08/28 02:01:43;;;;;;;12.10;6.58;;;;;;;21.96;64.81;98683.52;1679996;85;21019;-47
2022/08/28 02:04:10;;;;;;;10.43;6.40;;;;;;;21.92;64.87;98682.17;1680276;85;21584;-49
2022/08/28 02:06:36;;;;;;;16.63;6.77;;;;;;;21.88;65.02;98678.17;1680290;85;21059;-53
2022/08/28 02:09:05;;;;;;;12.50;7.35;;;;;;;21.84;65.40;98687.05;1680137;85;21039;-47
2022/08/28 02:11:31;;;;;;;15.28;7.75;;;;;;;21.81;65.34;98680.22;1680026;85;21496;-52
2022/08/28 02:14:00;;;;;;;10.58;7.12;;;;;;;21.76;65.75;98677.22;1680255;85;21018;-46
2022/08/28 02:16:26;;;;;;;10.70;6.92;;;;;;;21.71;66.44;98683.58;1680056;85;21051;-52
2022/08/28 02:18:52;;;;;;;9.30;6.10;;;;;;;21.70;65.55;98679.73;1680040;85;21019;-46
2022/08/28 02:21:19;;;;;;;11.25;6.53;;;;;;;21.60;66.53;98674.06;1680012;85;20980;-51
2022/08/28 02:23:45;;;;;;;10.90;6.42;;;;;;;21.58;66.58;98669.91;1680179;85;21536;-57
2022/08/28 02:26:14;;;;;;;11.18;6.50;;;;;;;21.49;67.03;98666.41;1680210;85;21017;-48
2022/08/28 02:28:40;;;;;;;9.80;6.05;;;;;;;21.49;67.03;98666.41;1680116;85;20980;-50
2022/08/28 02:31:08;;;;;;;11.75;6.00;;;;;;;21.49;67.00;98670.93;1679974;85;21019;-53
2022/08/28 02:33:38;;;;;;;11.22;6.42;;;;;;;21.45;67.22;98671.27;1679995;85;21462;-58
2022/08/28 02:36:07;;;;;;;11.65;6.33;;;;;;;21.45;67.17;98669.92;1679427;85;21015;-48
2022/08/28 02:38:33;;;;;;;8.80;6.08;;;;;;;21.42;67.66;98672.89;1679980;85;21007;-47
2022/08/28 02:40:59;;;;;;;10.38;6.12;;;;;;;21.40;67.77;98669.56;1690840;77;22522;-50
2022/08/28 02:43:25;;;;;;;9.25;5.95;;;;;;;21.38;68.02;98664.89;1714130;83;21583;-55
2022/08/28 02:45:50;;;;;;;12.55;5.80;;;;;;;21.36;67.94;98657.54;1714449;83;21479;-45
2022/08/28 02:48:17;;;;;;;15.38;5.78;;;;;;;21.38;67.68;98661.38;1714215;84;21114;-54
2022/08/28 02:50:45;;;;;;;11.25;5.72;;;;;;;21.39;67.52;98661.22;1750123;82;20998;-53
2022/08/28 02:53:11;;;;;;;9.35;5.85;;;;;;;21.40;68.01;98667.39;1752421;81;21419;-50
2022/08/28 02:55:36;;;;;;;11.78;5.40;;;;;;;21.41;67.35;98661.88;1752541;81;21415;-53
2022/08/28 02:58:05;;;;;;;11.33;6.22;;;;;;;21.41;67.89;98667.71;1752314;82;20970;-57
2022/08/28 03:00:30;;;;;;;15.28;5.90;;;;;;;21.41;67.56;98665.89;1752198;82;21442;-45
2022/08/28 03:02:56;;;;;;;11.65;5.97;;;;;;;21.41;67.94;98671.24;1752325;82;20977;-47
2022/08/28 03:05:25;;;;;;;8.18;4.90;;;;;;;21.41;67.96;98676.59;1752234;81;20985;-51
2022/08/28 03:07:52;;;;;;;10.82;5.95;;;;;;;21.41;67.82;98677.93;1752394;82;20942;-50
2022/08/28 03:10:19;;;;;;;12.40;6.20;;;;;;;21.39;67.59;98675.07;1752617;82;21446;-49
2022/08/28 03:12:45;;;;;;;11.12;6.53;;;;;;;21.39;67.38;98674.59;1752445;82;21030;-48
2022/08/28 03:15:11;;;;;;;9.27;5.90;;;;;;;21.34;67.67;98676.08;1752617;81;21736;-50
2022/08/28 03:17:37;;;;;;;14.53;5.95;;;;;;;21.33;67.75;98677.09;1752385;82;21546;-57
2022/08/28 03:20:09;;;;;;;8.45;5.45;;;;;;;21.33;67.67;98674.42;1752363;82;20957;-46
2022/08/28 03:25:21;;;;;;;10.78;5.55;;;;;;;21.31;67.70;98678.59;1752343;82;20950;-44
2022/08/28 03:27:47;;;;;;;8.75;5.53;;;;;;;21.30;67.97;98684.94;1752309;82;20981;-46
2022/08/28 03:30:13;;;;;;;11.33;5.42;;;;;;;21.30;67.63;98682.27;1752545;81;21025;-48
2022/08/28 03:32:39;;;;;;;8.90;5.20;;;;;;;21.31;67.92;98680.45;1752294;82;21013;-51
2022/08/28 03:35:07;;;;;;;11.35;7.62;;;;;;;21.31;67.68;98681.27;1752497;82;21416;-46
2022/08/28 03:37:33;;;;;;;15.25;5.47;;;;;;;21.29;67.54;98682.77;1752433;81;21491;-51
2022/08/28 03:39:59;;;;;;;11.03;5.75;;;;;;;21.28;67.67;98684.27;1752424;81;20978;-55
2022/08/28 03:42:25;;;;;;;9.23;5.30;;;;;;;21.28;67.23;98689.14;1734912;81;21806;-46
2022/08/28 03:44:51;;;;;;;8.20;5.20;;;;;;;21.27;67.70;98687.97;1715780;83;21377;-53
2022/08/28 03:47:16;;;;;;;8.80;5.28;;;;;;;21.27;68.25;98688.80;1716226;83;21508;-51
2022/08/28 03:49:44;;;;;;;10.75;5.10;;;;;;;21.27;68.38;98691.47;1716224;83;21035;-52
2022/08/28 03:52:10;;;;;;;;;;;;;;;21.29;68.41;98699.33;1718713;83;20998;-52
2022/08/28 03:54:35;;;;;;;13.25;4.85;;;;;;;21.30;68.63;98692.95;1716355;83;20176;-53
2022/08/28 03:57:01;;;;;;;14.68;5.37;;;;;;;21.31;68.26;98692.48;1716091;83;21026;-44
2022/08/28 03:59:27;;;;;;;12.07;5.20;;;;;;;21.32;68.41;98698.14;1716009;83;21507;-50
2022/08/28 04:01:53;;;;;;;8.53;5.00;;;;;;;21.35;68.28;98695.97;1716135;83;21367;-45
2022/08/28 04:04:20;;;;;;;6.78;5.33;;;;;;;21.34;68.33;98692.98;1716012;83;20975;-49
2022/08/28 04:06:45;;;;;;;11.53;5.03;;;;;;;21.37;68.15;98693.95;1716074;82;20979;-50
2022/08/28 04:09:11;;;;;;;9.68;5.50;;;;;;;21.38;68.20;98695.64;1716049;83;20990;-58
2022/08/28 04:11:41;;;;;;;8.70;4.87;;;;;;;21.42;68.08;98698.81;1716053;83;20983;-51
2022/08/28 04:14:06;;;;;;;9.48;4.80;;;;;;;21.45;67.93;98692.66;1715958;83;21031;-48
2022/08/28 04:16:32;;;;;;;7.22;4.72;;;;;;;21.52;67.85;98694.16;1716148;83;20994;-49
2022/08/28 04:18:58;;;;;;;6.37;5.00;;;;;;;21.54;67.92;98697.98;1716148;83;21516;-51
2022/08/28 04:21:25;;;;;;;9.78;5.20;;;;;;;21.55;67.78;98687.63;1716221;83;20967;-49
2022/08/28 04:23:53;;;;;;;5.78;4.90;;;;;;;21.57;67.41;98695.80;1716037;83;20994;-49
2022/08/28 04:26:24;;;;;;;6.87;4.97;;;;;;;21.55;67.84;98700.48;1715925;82;21003;-51
2022/08/28 04:28:50;;;;;;;7.37;5.45;;;;;;;21.56;67.42;98696.00;1716152;83;21049;-54
2022/08/28 04:31:16;;;;;;;8.48;4.80;;;;;;;21.54;67.84;98697.98;1716140;83;21503;-52
2022/08/28 04:33:42;;;;;;;11.60;4.75;;;;;;;21.56;67.41;98694.66;1716292;83;20982;-45
2022/08/28 04:36:14;;;;;;;10.05;4.85;;;;;;;21.56;67.87;98696.00;1716074;83;20991;-54
2022/08/28 04:38:41;;;;;;;7.20;4.80;;;;;;;21.54;67.97;98697.98;1716034;83;20991;-57
2022/08/28 04:41:11;;;;;;;7.37;4.90;;;;;;;21.53;67.72;98702.50;1715942;83;21377;-49
2022/08/28 04:43:37;;;;;;;7.67;4.67;;;;;;;21.54;67.74;98697.98;1711976;81;21023;-51
2022/08/28 04:46:08;;;;;;;11.12;4.80;;;;;;;21.56;67.75;98698.67;1710935;83;21046;-53
2022/08/28 04:48:35;;;;;;;10.90;5.28;;;;;;;21.56;67.90;98698.16;1710062;83;21232;-50
2022/08/28 04:51:04;;;;;;;5.95;4.97;;;;;;;21.58;67.98;98700.67;1711298;84;20998;-48
2022/08/28 04:53:31;;;;;;;14.93;5.05;;;;;;;21.59;68.01;98700.98;1708034;84;21495;-47
2022/08/28 04:55:59;;;;;;;12.47;5.50;;;;;;;21.63;68.09;98699.67;1711409;84;21049;-47
2022/08/28 04:58:26;;;;;;;10.90;4.95;;;;;;;21.63;68.28;98699.16;1711195;84;20999;-43
2022/08/28 05:00:54;;;;;;;7.85;4.85;;;;;;;21.68;68.01;98705.31;1711353;84;21630;-55
2022/08/28 05:03:20;;;;;;;9.53;5.60;;;;;;;21.70;68.11;98699.29;1711273;83;21018;-55
2022/08/28 05:05:49;;;;;;;8.30;4.90;;;;;;;21.74;68.18;98699.78;1711138;83;21003;-53
2022/08/28 05:08:19;;;;;;;13.35;5.30;;;;;;;21.78;68.12;98703.30;1711119;84;21524;-50
2022/08/28 05:10:48;;;;;;;9.90;4.62;;;;;;;21.84;67.87;98706.61;1711190;84;21496;-48
2022/08/28 05:13:16;;;;;;;8.20;4.97;;;;;;;21.87;67.71;98709.47;1711163;84;21007;-48
2022/08/28 05:15:45;;;;;;;12.58;5.45;;;;;;;21.87;67.90;98707.31;1711169;84;21007;-54
2022/08/28 05:18:15;;;;;;;9.45;5.05;;;;;;;21.89;67.74;98713.32;1711177;84;20988;-43
2022/08/28 05:20:45;;;;;;;7.85;5.40;;;;;;;21.88;67.68;98713.80;1711120;84;21028;-50
2022/08/28 05:23:12;;;;;;;12.53;5.12;;;;;;;21.90;67.74;98710.45;1711233;83;21452;-44
2022/08/28 05:25:46;;;;;;;10.40;5.28;;;;;;;21.89;67.97;98724.03;1711240;83;21007;-56
2022/08/28 05:28:12;;;;;;;11.65;5.55;;;;;;;21.87;67.61;98719.35;1711167;84;20999;-46
2022/08/28 05:30:40;;;;;;;9.40;5.50;;;;;;;21.78;67.97;98715.34;1711230;84;21488;-56
2022/08/28 05:33:07;;;;;;;10.25;5.70;;;;;;;21.78;67.85;98717.19;1711271;82;20999;-51
2022/08/28 05:35:37;;;;;;;10.35;5.80;;;;;;;21.81;68.16;98720.36;1711279;83;21650;-52
2022/08/28 05:38:04;;;;;;;7.30;5.70;;;;;;;21.82;68.03;98732.72;1711265;84;20991;-55
2022/08/28 05:40:30;;;;;;;12.55;5.60;;;;;;;21.81;68.21;98725.72;1711302;84;21490;-52
2022/08/28 05:42:56;;;;;;;10.55;6.15;;;;;;;21.83;68.16;98723.70;1712586;83;21031;-40
2022/08/28 05:45:22;;;;;;;13.75;5.37;;;;;;;21.82;68.25;98723.86;1711657;83;20979;-52
2022/08/28 05:47:50;;;;;;;9.05;5.70;;;;;;;21.79;68.50;98722.86;1711832;82;21006;-59
2022/08/28 05:50:15;;;;;;;9.43;5.72;;;;;;;21.81;68.47;98727.53;1711659;84;20967;-51
2022/08/28 05:52:42;;;;;;;7.35;5.90;;;;;;;21.80;69.44;98724.55;1711758;84;21029;-48
2022/08/28 05:55:11;;;;;;;7.37;6.30;;;;;;;21.83;68.95;98733.06;1712019;83;21483;-54
2022/08/28 05:57:38;;;;;;;15.65;6.47;;;;;;;21.83;69.60;98727.71;1711674;83;21472;-47
2022/08/28 06:00:06;;;;;;;9.38;6.10;;;;;;;21.90;69.56;98731.03;1711633;82;21038;-52
2022/08/28 06:02:33;;;;;;;11.78;6.58;;;;;;;21.90;69.96;98729.70;1711624;84;21495;-47
2022/08/28 06:05:00;;;;;;;10.08;6.78;;;;;;;21.93;70.26;98728.02;1711577;84;21019;-50
2022/08/28 06:07:26;;;;;;;7.00;5.92;;;;;;;21.94;70.10;98730.53;1711775;83;21011;-52
2022/08/28 06:09:52;;;;;;;9.60;5.90;;;;;;;21.96;70.75;98730.36;1711679;83;21481;-51
2022/08/28 06:12:18;;;;;;;8.53;5.70;;;;;;;22.00;70.29;98736.53;1711743;83;21481;-49
2022/08/28 06:14:43;;;;;;;15.25;5.92;;;;;;;22.05;70.45;98732.01;1711620;84;21496;-58
2022/08/28 06:17:09;;;;;;;11.35;6.55;;;;;;;22.07;70.56;98728.66;1711761;83;21047;-52
2022/08/28 06:19:36;;;;;;;10.88;6.67;;;;;;;22.12;70.55;98730.80;1711733;82;21461;-50
2022/08/28 06:22:04;;;;;;;14.17;7.33;;;;;;;22.16;70.44;98731.62;1712176;83;20968;-51
2022/08/28 06:24:31;;;;;;;7.40;6.28;;;;;;;22.18;70.61;98727.45;1711644;83;21018;-55
2022/08/28 06:26:58;;;;;;;14.95;7.58;;;;;;;22.22;70.66;98729.59;1711889;84;21499;-48
2022/08/28 06:29:25;;;;;;;12.68;7.00;;;;;;;22.28;70.09;98726.75;1711689;84;20994;-49
2022/08/28 06:31:58;;;;;;;11.25;6.92;;;;;;;22.30;70.32;98724.72;1711751;84;21065;-52
2022/08/28 06:34:24;;;;;;;15.10;7.72;;;;;;;22.32;70.71;98720.54;1711469;84;20995;-51
2022/08/28 06:36:50;;;;;;;9.20;7.00;;;;;;;22.36;70.48;98728.58;1711747;84;20995;-49
2022/08/28 06:39:16;;;;;;;9.80;7.00;;;;;;;22.34;70.57;98734.59;1711685;83;20968;-45
2022/08/28 06:41:42;;;;;;;14.07;7.67;;;;;;;22.38;70.39;98735.94;1711643;84;21031;-46
2022/08/28 06:44:18;;;;;;;10.78;7.65;;;;;;;22.38;70.72;98743.45;1743274;81;21042;-51
2022/08/28 06:46:46;;;;;;;10.37;7.87;;;;;;;22.38;70.83;98738.09;1749932;82;21018;-55
2022/08/28 06:49:11;;;;;;;12.82;7.78;;;;;;;22.36;70.78;98747.33;1749626;82;20997;-50
2022/08/28 06:51:38;;;;;;;9.53;7.30;;;;;;;22.36;71.51;98739.30;1749633;82;20970;-50
2022/08/28 06:54:05;;;;;;;14.58;8.50;;;;;;;22.31;71.70;98737.64;1749822;82;21458;-52
2022/08/28 06:56:31;;;;;;;10.70;8.03;;;;;;;22.31;71.70;98737.64;1749687;81;21013;-52
2022/08/28 06:58:58;;;;;;;15.63;7.80;;;;;;;22.27;71.67;98741.16;1749869;82;21333;-54
2022/08/28 07:01:33;;;;;;;13.98;8.65;;;;;;;22.26;72.24;98743.98;1749929;82;20973;-53
2022/08/28 07:04:06;;;;;;;11.05;8.43;;;;;;;22.30;72.42;98746.67;1749549;82;21016;-51
2022/08/28 07:06:35;;;;;;;13.98;9.73;;;;;;;22.31;72.61;98735.78;1749489;82;20974;-54
2022/08/28 07:09:05;;;;;;;20.10;8.78;;;;;;;22.34;72.08;98737.27;1749549;81;20954;-49
2022/08/28 07:11:34;;;;;;;14.10;9.10;;;;;;;22.36;72.41;98740.12;1749561;82;21476;-48
2022/08/28 07:14:01;;;;;;;13.13;10.10;;;;;;;22.39;72.45;98738.92;1749569;81;21009;-45
2022/08/28 07:16:30;;;;;;;;;;;;;;;22.42;73.20;98742.61;1752312;82;21518;-57
2022/08/28 07:18:56;;;;;;;12.82;9.85;;;;;;;22.40;74.74;98738.75;1749564;82;20119;-44
2022/08/28 07:21:22;;;;;;;14.25;9.98;;;;;;;22.49;72.98;98738.22;1749776;82;20990;-46
2022/08/28 07:23:49;;;;;;;13.78;10.35;;;;;;;22.55;72.87;98748.73;1749653;82;20997;-56
2022/08/28 07:26:19;;;;;;;17.48;11.45;;;;;;;22.58;73.39;98745.20;1749881;82;20978;-54
2022/08/28 07:28:46;;;;;;;21.60;9.38;;;;;;;22.67;73.21;98746.00;1749621;82;20974;-46
2022/08/28 07:31:19;;;;;;;14.33;9.77;;;;;;;22.76;72.39;98744.12;1749825;82;20974;-55
2022/08/28 07:33:45;;;;;;;14.35;9.50;;;;;;;22.83;72.89;98745.56;1749572;82;22187;-56
2022/08/28 07:36:16;;;;;;;13.97;9.83;;;;;;;22.88;72.93;98748.04;1749770;82;21497;-46
2022/08/28 07:38:42;;;;;;;16.45;9.33;;;;;;;22.97;72.92;98747.48;1749592;82;21514;-52
2022/08/28 07:41:17;;;;;;;17.73;9.73;;;;;;;23.10;72.28;98753.63;1749823;82;21010;-54
2022/08/28 07:46:28;;;;;;;12.53;9.15;;;;;;;23.27;72.08;98749.83;1701798;83;20990;-48
2022/08/28 07:48:56;;;;;;;14.37;8.80;;;;;;;23.35;71.53;98747.58;1716742;83;21515;-53
2022/08/28 07:51:22;;;;;;;11.28;7.62;;;;;;;23.41;71.35;98736.63;1716266;83;21003;-55
2022/08/28 07:53:48;;;;;;;12.75;8.20;;;;;;;23.50;70.80;98740.42;1715913;83;20995;-53
2022/08/28 07:56:14;;;;;;;11.10;8.28;;;;;;;23.60;70.55;98742.02;1716138;83;20983;-55
2022/08/28 07:58:40;;;;;;;8.50;7.00;;;;;;;23.69;69.98;98741.74;1715960;83;21445;-52
2022/08/28 08:01:06;;;;;;;13.30;7.50;;;;;;;23.75;69.78;98745.54;1715881;83;21488;-55
2022/08/28 08:03:32;;;;;;;18.65;7.70;;;;;;;23.85;69.51;98753.34;1716016;83;21468;-49
2022/08/28 08:06:02;;;;;;;12.05;7.92;;;;;;;23.97;69.02;98751.89;1715968;84;21007;-53
2022/08/28 08:08:29;;;;;;;9.98;8.13;;;;;;;24.02;68.94;98748.14;1715967;84;21504;-50
2022/08/28 08:11:03;;;;;;;11.78;7.87;;;;;;;24.12;68.42;98750.55;1716005;83;21034;-49
2022/08/28 08:13:30;;;;;;;9.40;8.30;;;;;;;24.19;68.40;98746.62;1715892;84;21491;-48
2022/08/28 08:16:07;;;;;;;15.25;8.43;;;;;;;24.28;68.39;98743.64;1716223;83;21484;-51
2022/08/28 08:18:33;;;;;;;;;;;;;;;24.36;68.23;98744.55;1718735;82;20975;-55
2022/08/28 08:21:00;;;;;;;14.00;8.37;;;;;;;24.41;68.33;98747.00;1716374;83;20204;-51
2022/08/28 08:23:26;;;;;;;;;;;;;;;24.51;68.21;98749.42;1693358;83;21066;-49
2022/08/28 08:25:57;;;;;;;14.07;8.33;;;;;;;24.62;68.32;98750.83;1716337;83;20137;-50
2022/08/28 08:28:23;;;;;;;10.63;8.45;;;;;;;24.74;67.69;98756.05;1716052;83;20994;-47
2022/08/28 08:30:49;;;;;;;12.03;9.10;;;;;;;24.82;67.30;98753.22;1716310;83;20995;-54
2022/08/28 08:33:15;;;;;;;15.80;9.25;;;;;;;24.88;66.90;98758.34;1697821;83;20999;-49
2022/08/28 08:35:42;;;;;;;14.90;8.90;;;;;;;24.98;66.89;98759.41;1716300;83;20998;-55
2022/08/28 08:38:08;;;;;;;19.70;9.80;;;;;;;24.97;66.78;98757.72;1716053;83;20967;-50
2022/08/28 08:40:35;;;;;;;16.90;9.80;;;;;;;25.09;66.73;98758.37;1716129;83;21037;-49
2022/08/28 08:43:02;;;;;;;14.97;9.47;;;;;;;25.15;66.27;98762.15;1720361;82;21049;-56
2022/08/28 08:45:29;;;;;;;13.08;9.80;;;;;;;25.28;65.98;98767.68;1746177;81;21021;-56
2022/08/28 08:47:56;;;;;;;16.35;9.38;;;;;;;25.28;65.57;98767.68;1689372;83;21042;-51
2022/08/28 08:50:29;;;;;;;13.08;9.63;;;;;;;25.36;65.62;98761.85;1719845;83;21487;-47
2022/08/28 08:53:13;;;;;;;14.47;9.15;;;;;;;25.48;65.47;98767.86;1689355;85;21011;-44
2022/08/28 08:55:49;;;;;;;17.23;9.45;;;;;;;25.57;65.17;98770.44;1719304;83;20975;-57
2022/08/28 08:58:32;;;;;;;20.10;10.25;;;;;;;25.64;65.30;98782.91;1744496;82;21515;-53
2022/08/28 09:01:15;;;;;;;12.70;10.03;;;;;;;25.78;64.58;98787.08;1744911;82;21877;-51
2022/08/28 09:04:10;;;;;;;16.25;9.28;;;;;;;25.79;64.14;98786.03;1744889;82;21515;-49
2022/08/28 09:07:02;;;;;;;19.37;9.35;;;;;;;25.91;63.00;98787.69;1744860;82;20974;-57
2022/08/28 09:09:43;;;;;;;15.25;9.55;;;;;;;26.03;62.90;98786.12;1744754;82;20967;-56
2022/08/28 09:12:19;;;;;;;13.62;9.38;;;;;;;26.25;62.99;98790.95;1744905;82;21510;-57
2022/08/28 09:15:04;;;;;;;16.40;9.63;;;;;;;26.25;61.93;98788.27;1745023;82;20985;-49
2022/08/28 09:17:50;;;;;;;16.67;9.80;;;;;;;26.42;62.09;98786.89;1744887;82;21593;-50
2022/08/28 09:20:21;;;;;;;12.03;9.57;;;;;;;26.46;61.74;98789.19;1680628;82;21625;-52
2022/08/28 09:22:48;;;;;;;14.63;9.90;;;;;;;26.48;61.65;98785.25;1743914;82;20946;-45
2022/08/28 09:25:48;;;;;;;15.38;9.90;;;;;;;26.53;61.49;98791.41;1745081;82;21435;-48
2022/08/28 09:28:33;;;;;;;19.37;9.33;;;;;;;26.58;61.42;98784.91;1744907;82;20971;-58
2022/08/28 09:31:15;;;;;;;11.40;9.93;;;;;;;26.67;61.17;98789.62;1744982;82;21009;-50
2022/08/28 09:33:46;;;;;;;12.60;8.98;;;;;;;26.69;60.78;98792.45;1744926;82;20947;-46
2022/08/28 09:36:35;;;;;;;14.85;10.15;;;;;;;26.79;60.86;98792.88;1744899;82;20977;-56
2022/08/28 09:39:09;;;;;;;10.95;9.35;;;;;;;26.92;60.74;98788.57;1744834;82;20967;-49
2022/08/28 09:45:19;;;;;;;17.48;8.88;;;;;;;27.49;59.70;98802.13;1751293;82;21050;-45
2022/08/28 09:47:53;;;;;;;11.25;9.08;;;;;;;27.74;57.20;98801.00;1754704;82;21013;-47
2022/08/28 09:50:33;;;;;;;13.30;8.93;;;;;;;28.34;58.39;98798.24;1754765;82;21020;-44
2022/08/28 09:53:13;;;;;;;12.35;8.20;;;;;;;28.89;54.71;98787.56;1754821;81;21439;-53
2022/08/28 09:55:50;;;;;;;14.45;7.78;;;;;;;29.22;56.34;98800.93;1748736;81;20953;-57
2022/08/28 09:58:16;;;;;;;10.43;8.25;;;;;;;29.74;55.60;98802.13;1754726;82;20970;-50
2022/08/28 10:00:53;;;;;;;14.00;7.65;;;;;;;30.47;54.33;98802.00;1754781;82;21009;-44
2022/08/28 10:03:27;;;;;;;12.18;7.55;;;;;;;30.98;50.94;98801.27;1753950;82;21482;-48
2022/08/28 10:06:12;;;;;;;9.25;7.10;;;;;;;31.67;50.93;98807.70;1754575;82;21459;-49
2022/08/28 10:09:04;;;;;;;12.93;6.83;;;;;;;32.27;48.56;98798.52;1754659;82;20962;-44
2022/08/28 10:11:47;;;;;;;13.62;6.97;;;;;;;32.53;44.81;98800.73;1610748;88;21025;-57
2022/08/28 10:14:37;;;;;;;9.23;6.58;;;;;;;32.30;43.45;98794.80;1610594;89;21107;-55
2022/08/28 10:17:28;;;;;;;11.50;6.78;;;;;;;32.35;46.09;98802.25;1610746;88;21029;-42
2022/08/28 10:20:21;;;;;;;10.68;6.70;;;;;;;32.07;45.59;98805.69;1610679;88;21000;-51
2022/08/28 10:23:13;;;;;;;9.80;6.20;;;;;;;32.06;46.12;98803.52;1610196;88;21522;-45
2022/08/28 10:25:53;;;;;;;10.43;6.75;;;;;;;31.98;45.39;98804.36;1610406;88;21005;-47
2022/08/28 10:28:30;;;;;;;15.48;6.67;;;;;;;31.45;46.24;98806.86;1609594;88;21403;-51
2022/08/28 10:31:19;;;;;;;12.30;7.10;;;;;;;31.45;46.24;98806.86;1610674;88;21104;-49
2022/08/28 10:34:10;;;;;;;13.72;7.47;;;;;;;30.98;46.92;98806.19;1610922;89;21042;-45
2022/08/28 10:36:36;;;;;;;9.40;7.20;;;;;;;30.73;47.89;98800.02;1583848;88;21097;-47
2022/08/28 10:39:16;;;;;;;10.00;7.10;;;;;;;30.62;47.50;98807.03;1619352;88;21537;-48
2022/08/28 10:41:56;;;;;;;12.13;7.50;;;;;;;30.43;47.80;98808.41;1619866;88;21025;-46
2022/08/28 10:44:27;;;;;;;10.28;6.55;;;;;;;30.34;47.87;98807.55;1613629;88;21096;-54
2022/08/28 10:46:56;;;;;;;12.50;6.95;;;;;;;29.98;48.01;98806.41;1624311;88;21017;-59
2022/08/28 10:49:33;;;;;;;12.55;7.75;;;;;;;30.04;48.65;98796.86;1704309;84;20967;-55
2022/08/28 10:52:07;;;;;;;;;;;;;;;30.04;48.71;98805.00;1706706;84;21488;-47
2022/08/28 10:54:53;;;;;;;9.95;6.70;;;;;;;29.96;48.46;98815.30;1704462;84;20105;-57
2022/08/28 10:57:36;;;;;;;13.68;7.20;;;;;;;30.01;48.55;98804.61;1704450;84;21031;-51
2022/08/28 11:00:12;;;;;;;10.53;7.08;;;;;;;29.97;48.79;98803.41;1704450;84;21089;-46
2022/08/28 11:02:43;;;;;;;9.93;6.90;;;;;;;29.96;49.04;98809.37;1708922;82;21548;-55
2022/08/28 11:05:10;;;;;;;9.55;6.28;;;;;;;29.98;48.89;98805.91;1707648;83;20999;-44
2022/08/28 11:07:49;;;;;;;11.03;6.97;;;;;;;29.99;48.64;98808.08;1709220;84;21035;-48
2022/08/28 11:10:21;;;;;;;8.15;6.80;;;;;;;29.94;48.66;98811.44;1709118;84;21003;-52
2022/08/28 11:12:50;;;;;;;10.88;7.80;;;;;;;29.62;49.13;98810.66;1709210;84;20994;-53
2022/08/28 11:15:35;;;;;;;12.00;7.45;;;;;;;29.61;49.38;98804.93;1709219;84;21035;-50
2022/08/28 11:18:24;;;;;;;9.95;7.22;;;;;;;29.50;49.55;98813.77;1709111;84;21003;-53
2022/08/28 11:21:25;;;;;;;11.22;7.08;;;;;;;29.31;49.83;98808.77;1715321;83;21527;-56
2022/08/28 11:24:05;;;;;;;9.23;7.90;;;;;;;29.12;50.36;98813.25;1610508;88;21505;-44
2022/08/28 11:26:36;;;;;;;10.23;7.62;;;;;;;28.93;50.76;98807.73;1618389;88;21063;-48
2022/08/28 11:29:03;;;;;;;8.13;6.70;;;;;;;28.80;51.95;98805.91;1619949;88;21125;-44
2022/08/28 11:31:34;;;;;;;10.20;7.70;;;;;;;28.81;51.54;98804.84;1621144;88;21028;-48
2022/08/28 11:34:01;;;;;;;9.00;6.95;;;;;;;28.79;51.70;98802.06;1621107;88;21505;-51
2022/08/28 11:36:32;;;;;;;8.30;6.90;;;;;;;28.86;52.19;98801.52;1621071;88;21016;-47
2022/08/28 11:39:06;;;;;;;13.00;7.55;;;;;;;28.94;52.27;98803.95;1621264;88;21036;-57
2022/08/28 11:41:37;;;;;;;10.80;7.40;;;;;;;29.02;51.60;98798.30;1615214;88;21084;-52
2022/08/28 11:44:11;;;;;;;11.00;7.40;;;;;;;28.96;51.37;98805.09;1621383;86;21019;-49
2022/08/28 11:46:43;;;;;;;12.07;8.30;;;;;;;28.86;52.05;98809.10;1623232;88;21034;-52
2022/08/28 11:49:33;;;;;;;8.75;7.05;;;;;;;28.84;51.86;98803.08;1623174;88;21560;-51
2022/08/28 11:52:30;;;;;;;10.20;8.05;;;;;;;28.83;51.77;98800.58;1580152;90;21052;-44
2022/08/28 11:55:28;;;;;;;12.25;9.10;;;;;;;28.69;52.13;98800.65;1678248;84;21015;-52
2022/08/28 11:58:26;;;;;;;13.35;8.00;;;;;;;28.77;52.04;98804.16;1686393;84;21476;-53